createdAt,value
2023-05-14T00:00:32.053Z,25.00
2023-05-14T00:01:32.117Z,25.00
2023-05-14T00:02:32.309Z,25.00
2023-05-14T00:03:32.290Z,0.00
2023-05-14T00:04:32.429Z,0.00
2023-05-14T00:05:32.389Z,0.00
2023-05-14T00:06:32.432Z,0.00
2023-05-14T00:07:32.489Z,0.00
2023-05-14T00:08:32.529Z,0.00
2023-05-14T00:09:32.556Z,0.00
2023-05-14T00:10:32.604Z,0.00
2023-05-14T00:11:32.652Z,0.00
2023-05-14T00:12:32.671Z,9.70
2023-05-14T00:13:32.732Z,25.00
2023-05-14T00:14:32.757Z,25.00
2023-05-14T00:15:34.383Z,25.00
2023-05-14T00:16:32.900Z,25.81
2023-05-14T00:17:32.926Z,25.53
2023-05-14T00:18:32.826Z,25.00
2023-05-14T00:19:32.772Z,26.27
2023-05-14T00:20:32.773Z,25.62
2023-05-14T00:21:32.778Z,25.59
2023-05-14T00:22:32.753Z,25.30
2023-05-14T00:23:32.758Z,25.46
2023-05-14T00:24:32.740Z,26.28
2023-05-14T00:25:32.735Z,25.75
2023-05-14T00:26:32.738Z,25.00
2023-05-14T00:27:32.726Z,26.40
2023-05-14T00:28:32.727Z,25.00
2023-05-14T00:29:32.746Z,25.00
2023-05-14T00:30:32.717Z,25.00
2023-05-14T00:31:32.736Z,26.60
2023-05-14T00:32:32.726Z,26.18
2023-05-14T00:33:32.709Z,25.57
2023-05-14T00:34:32.728Z,26.13
2023-05-14T00:35:32.701Z,25.74
2023-05-14T00:36:32.698Z,28.11
2023-05-14T00:37:32.690Z,25.71
2023-05-14T00:38:32.689Z,25.81
2023-05-14T00:39:32.703Z,26.21
2023-05-14T00:40:32.687Z,27.94
2023-05-14T00:41:32.674Z,27.16
2023-05-14T00:42:32.666Z,28.33
2023-05-14T00:43:32.668Z,26.45
2023-05-14T00:44:32.651Z,27.60
2023-05-14T00:45:32.672Z,25.00
2023-05-14T00:46:32.711Z,27.96
2023-05-14T00:47:32.674Z,29.35
2023-05-14T00:48:32.624Z,25.01
2023-05-14T00:49:32.624Z,25.16
2023-05-14T00:50:32.613Z,26.09
2023-05-14T00:51:32.600Z,26.04
2023-05-14T00:52:32.589Z,27.38
2023-05-14T00:53:32.578Z,27.21
2023-05-14T00:54:32.574Z,25.53
2023-05-14T00:55:32.560Z,26.32
2023-05-14T00:56:32.541Z,26.37
2023-05-14T00:57:32.540Z,26.34
2023-05-14T00:58:32.530Z,28.63
2023-05-14T00:59:32.514Z,26.12
2023-05-14T01:00:32.510Z,28.02
2023-05-14T01:01:32.647Z,25.91
2023-05-14T01:02:32.557Z,25.32
2023-05-14T01:03:32.515Z,26.36
2023-05-14T01:04:32.474Z,25.00
2023-05-14T01:05:32.449Z,28.11
2023-05-14T01:06:32.442Z,26.58
2023-05-14T01:07:32.428Z,27.81
2023-05-14T01:08:32.418Z,25.00
2023-05-14T01:09:32.414Z,27.19
2023-05-14T01:10:32.391Z,27.99
2023-05-14T01:11:32.380Z,25.00
2023-05-14T01:12:32.393Z,26.97
2023-05-14T01:13:32.390Z,28.19
2023-05-14T01:14:32.404Z,25.73
2023-05-14T01:15:32.429Z,29.50
2023-05-14T01:16:32.510Z,26.93
2023-05-14T01:17:32.544Z,26.16
2023-05-14T01:18:32.539Z,28.94
2023-05-14T01:19:32.529Z,26.96
2023-05-14T01:20:32.562Z,27.70
2023-05-14T01:21:32.597Z,27.96
2023-05-14T01:22:32.609Z,28.64
2023-05-14T01:23:32.638Z,27.69
2023-05-14T01:24:32.658Z,28.87
2023-05-14T01:25:32.999Z,27.53
2023-05-14T01:26:32.707Z,25.86
2023-05-14T01:27:32.722Z,27.74
2023-05-14T01:28:32.752Z,26.30
2023-05-14T01:29:32.773Z,28.73
2023-05-14T01:30:32.843Z,26.43
2023-05-14T01:31:32.841Z,27.95
2023-05-14T01:32:32.862Z,26.31
2023-05-14T01:33:32.885Z,26.14
2023-05-14T01:34:32.881Z,27.77
2023-05-14T01:35:32.904Z,28.14
2023-05-14T01:36:32.971Z,28.12
2023-05-14T01:37:32.947Z,27.65
2023-05-14T01:38:32.970Z,28.39
2023-05-14T01:39:32.990Z,26.95
2023-05-14T01:40:33.019Z,27.29
2023-05-14T01:41:33.039Z,30.09
2023-05-14T01:42:33.059Z,25.67
2023-05-14T01:43:33.138Z,26.60
2023-05-14T01:44:33.110Z,27.98
2023-05-14T01:45:33.141Z,27.12
2023-05-14T01:46:33.217Z,28.99
2023-05-14T01:47:33.225Z,26.83
2023-05-14T01:48:33.211Z,26.88
2023-05-14T01:49:33.259Z,25.35
2023-05-14T01:50:33.252Z,28.62
2023-05-14T01:51:33.271Z,29.39
2023-05-14T01:52:33.285Z,27.49
2023-05-14T01:53:33.308Z,28.81
2023-05-14T01:54:33.331Z,29.23
2023-05-14T01:55:33.347Z,27.00
2023-05-14T01:56:33.368Z,29.32
2023-05-14T01:57:33.390Z,25.42
2023-05-14T01:58:33.416Z,28.68
2023-05-14T01:59:33.464Z,28.48
2023-05-14T02:00:33.458Z,26.13
2023-05-14T02:01:33.511Z,25.59
2023-05-14T02:02:33.579Z,28.21
2023-05-14T02:03:33.651Z,26.54
2023-05-14T02:04:33.560Z,27.61
2023-05-14T02:05:33.619Z,28.35
2023-05-14T02:06:33.618Z,26.70
2023-05-14T02:07:33.651Z,26.21
2023-05-14T02:08:33.667Z,26.35
2023-05-14T02:09:33.691Z,27.29
2023-05-14T02:10:33.726Z,28.55
2023-05-14T02:11:33.754Z,28.17
2023-05-14T02:12:33.802Z,28.23
2023-05-14T02:13:33.813Z,27.84
2023-05-14T02:14:33.853Z,27.47
2023-05-14T02:15:33.868Z,26.99
2023-05-14T02:16:34.030Z,28.93
2023-05-14T02:17:33.966Z,25.84
2023-05-14T02:18:33.990Z,26.27
2023-05-14T02:19:33.975Z,29.09
2023-05-14T02:20:34.022Z,28.60
2023-05-14T02:21:34.019Z,27.62
2023-05-14T02:22:33.997Z,26.79
2023-05-14T02:23:40.990Z,25.98
2023-05-14T02:24:34.002Z,26.23
2023-05-14T02:25:33.985Z,26.90
2023-05-14T02:26:33.970Z,27.61
2023-05-14T02:27:33.973Z,28.23
2023-05-14T02:28:33.967Z,27.30
2023-05-14T02:29:33.959Z,29.27
2023-05-14T02:30:33.976Z,28.24
2023-05-14T02:31:33.976Z,26.33
2023-05-14T02:32:34.079Z,29.77
2023-05-14T02:33:33.997Z,27.88
2023-05-14T02:34:33.932Z,29.41
2023-05-14T02:35:33.928Z,26.85
2023-05-14T02:36:33.923Z,27.94
2023-05-14T02:37:33.936Z,27.66
2023-05-14T02:38:33.915Z,27.88
2023-05-14T02:39:33.920Z,26.67
2023-05-14T02:40:33.901Z,29.54
2023-05-14T02:41:33.892Z,28.41
2023-05-14T02:42:33.886Z,29.72
2023-05-14T02:43:33.880Z,25.00
2023-05-14T02:44:33.869Z,26.82
2023-05-14T02:45:33.869Z,28.16
2023-05-14T02:46:33.876Z,27.87
2023-05-14T02:47:36.097Z,27.52
2023-05-14T02:48:33.850Z,27.86
2023-05-14T02:49:33.853Z,28.08
2023-05-14T02:50:33.848Z,27.27
2023-05-14T02:51:33.846Z,28.87
2023-05-14T02:52:33.857Z,29.70
2023-05-14T02:53:33.864Z,31.54
2023-05-14T02:54:33.840Z,30.83
2023-05-14T02:55:33.844Z,28.01
2023-05-14T02:56:33.833Z,30.90
2023-05-14T02:57:33.825Z,25.57
2023-05-14T02:58:33.827Z,25.98
2023-05-14T02:59:33.840Z,27.78
2023-05-14T03:00:33.871Z,26.79
2023-05-14T03:01:33.824Z,27.12
2023-05-14T03:02:33.938Z,25.71
2023-05-14T03:03:33.824Z,26.22
2023-05-14T03:04:33.808Z,26.83
2023-05-14T03:05:33.808Z,27.14
2023-05-14T03:06:33.810Z,26.68
2023-05-14T03:07:33.801Z,27.39
2023-05-14T03:08:33.799Z,27.19
2023-05-14T03:09:35.003Z,27.09
2023-05-14T03:10:33.806Z,29.60
2023-05-14T03:11:33.803Z,30.73
2023-05-14T03:12:33.804Z,30.23
2023-05-14T03:13:33.797Z,28.48
2023-05-14T03:14:33.795Z,25.31
2023-05-14T03:15:33.790Z,29.03
2023-05-14T03:16:33.822Z,28.76
2023-05-14T03:17:33.826Z,28.70
2023-05-14T03:18:33.818Z,29.05
2023-05-14T03:19:33.780Z,30.05
2023-05-14T03:20:33.778Z,30.36
2023-05-14T03:21:33.789Z,31.06
2023-05-14T03:22:33.776Z,27.36
2023-05-14T03:23:33.775Z,28.01
2023-05-14T03:24:33.769Z,28.44
2023-05-14T03:25:33.823Z,28.04
2023-05-14T03:26:33.758Z,27.56
2023-05-14T03:27:33.752Z,28.47
2023-05-14T03:28:33.737Z,28.11
2023-05-14T03:29:33.733Z,28.24
2023-05-14T03:30:33.740Z,28.30
2023-05-14T03:31:33.717Z,28.02
2023-05-14T03:32:33.752Z,26.91
2023-05-14T03:33:33.707Z,26.59
2023-05-14T03:34:33.689Z,25.70
2023-05-14T03:35:33.673Z,33.45
2023-05-14T03:36:33.669Z,29.07
2023-05-14T03:37:33.664Z,29.43
2023-05-14T03:38:33.656Z,30.97
2023-05-14T03:39:33.643Z,27.64
2023-05-14T03:40:33.642Z,29.25
2023-05-14T03:41:33.851Z,30.50
2023-05-14T03:42:33.627Z,29.16
2023-05-14T03:43:33.616Z,26.24
2023-05-14T03:44:33.670Z,27.95
2023-05-14T03:45:33.602Z,27.65
2023-05-14T03:46:33.591Z,27.41
2023-05-14T03:47:33.605Z,28.73
2023-05-14T03:48:33.598Z,29.51
2023-05-14T03:49:33.566Z,28.63
2023-05-14T03:50:33.567Z,27.34
2023-05-14T03:51:33.558Z,26.54
2023-05-14T03:52:33.550Z,27.64
2023-05-14T03:53:33.543Z,27.65
2023-05-14T03:54:33.539Z,29.76
2023-05-14T03:55:33.549Z,27.46
2023-05-14T03:56:33.596Z,29.35
2023-05-14T03:57:33.649Z,28.58
2023-05-14T03:58:33.648Z,29.53
2023-05-14T03:59:33.678Z,27.71
2023-05-14T04:00:33.704Z,27.04
2023-05-14T04:01:33.729Z,27.64
2023-05-14T04:02:33.858Z,29.62
2023-05-14T04:03:33.891Z,31.68
2023-05-14T04:04:33.858Z,30.19
2023-05-14T04:05:33.836Z,27.53
2023-05-14T04:06:33.871Z,28.47
2023-05-14T04:07:33.892Z,27.41
2023-05-14T04:08:33.918Z,26.86
2023-05-14T04:09:33.944Z,29.12
2023-05-14T04:10:33.974Z,29.86
2023-05-14T04:11:34.002Z,28.42
2023-05-14T04:12:34.044Z,30.16
2023-05-14T04:13:34.087Z,32.51
2023-05-14T04:14:34.088Z,29.32
2023-05-14T04:15:34.124Z,28.77
2023-05-14T04:16:34.189Z,29.56
2023-05-14T04:17:35.062Z,30.40
2023-05-14T04:18:34.260Z,28.76
2023-05-14T04:19:34.254Z,29.20
2023-05-14T04:20:34.276Z,31.39
2023-05-14T04:21:34.310Z,31.59
2023-05-14T04:22:34.365Z,29.35
2023-05-14T04:23:34.365Z,30.08
2023-05-14T04:24:34.392Z,31.83
2023-05-14T04:25:34.428Z,27.22
2023-05-14T04:26:34.451Z,28.09
2023-05-14T04:27:34.474Z,28.54
2023-05-14T04:28:34.505Z,28.49
2023-05-14T04:29:34.561Z,27.73
2023-05-14T04:30:34.562Z,28.70
2023-05-14T04:31:34.603Z,31.88
2023-05-14T04:32:34.619Z,31.78
2023-05-14T04:33:34.640Z,29.13
2023-05-14T04:34:34.661Z,29.59
2023-05-14T04:35:34.704Z,29.16
2023-05-14T04:36:34.743Z,30.92
2023-05-14T04:37:34.738Z,30.55
2023-05-14T04:38:34.759Z,31.91
2023-05-14T04:39:34.788Z,30.47
2023-05-14T04:40:34.809Z,27.79
2023-05-14T04:41:34.838Z,28.26
2023-05-14T04:42:34.866Z,29.69
2023-05-14T04:43:34.896Z,27.20
2023-05-14T04:44:34.923Z,29.00
2023-05-14T04:45:35.112Z,30.21
2023-05-14T04:46:35.122Z,30.33
2023-05-14T04:47:35.052Z,29.67
2023-05-14T04:48:35.033Z,29.24
2023-05-14T04:49:35.057Z,30.13
2023-05-14T04:50:35.089Z,30.00
2023-05-14T04:51:35.112Z,28.43
2023-05-14T04:52:35.093Z,31.01
2023-05-14T04:53:35.087Z,28.70
2023-05-14T04:54:35.163Z,30.11
2023-05-14T04:55:35.090Z,30.30
2023-05-14T04:56:35.093Z,28.59
2023-05-14T04:57:35.088Z,29.15
2023-05-14T04:58:35.399Z,26.30
2023-05-14T04:59:35.104Z,31.22
2023-05-14T05:00:35.091Z,27.74
2023-05-14T05:01:35.210Z,31.75
2023-05-14T05:02:35.149Z,28.37
2023-05-14T05:03:35.113Z,30.27
2023-05-14T05:04:35.087Z,28.99
2023-05-14T05:05:35.101Z,27.85
2023-05-14T05:06:35.093Z,28.97
2023-05-14T05:07:35.098Z,27.45
2023-05-14T05:08:35.100Z,28.38
2023-05-14T05:09:35.107Z,30.94
2023-05-14T05:10:35.098Z,28.95
2023-05-14T05:11:35.094Z,28.64
2023-05-14T05:12:35.098Z,28.15
2023-05-14T05:13:35.094Z,30.82
2023-05-14T05:14:35.091Z,31.65
2023-05-14T05:15:35.307Z,30.80
2023-05-14T05:16:35.184Z,29.67
2023-05-14T05:17:35.179Z,26.60
2023-05-14T05:18:35.118Z,28.89
2023-05-14T05:19:43.221Z,29.25
2023-05-14T05:20:35.078Z,29.57
2023-05-14T05:21:35.074Z,30.49
2023-05-14T05:22:35.059Z,31.06
2023-05-14T05:23:35.053Z,30.95
2023-05-14T05:24:35.053Z,30.18
2023-05-14T05:25:35.043Z,30.80
2023-05-14T05:26:35.041Z,29.99
2023-05-14T05:27:35.037Z,30.97
2023-05-14T05:28:35.031Z,30.81
2023-05-14T05:29:35.024Z,33.42
2023-05-14T05:30:35.017Z,33.49
2023-05-14T05:31:35.059Z,29.08
2023-05-14T05:32:35.067Z,30.42
2023-05-14T05:33:35.048Z,28.37
2023-05-14T05:34:35.007Z,32.01
2023-05-14T05:35:34.988Z,33.87
2023-05-14T05:36:35.009Z,29.08
2023-05-14T05:37:34.976Z,31.74
2023-05-14T05:38:34.970Z,28.59
2023-05-14T05:39:35.308Z,30.40
2023-05-14T05:40:34.956Z,33.35
2023-05-14T05:41:34.964Z,34.58
2023-05-14T05:42:34.938Z,30.20
2023-05-14T05:43:34.938Z,30.74
2023-05-14T05:44:34.918Z,31.94
2023-05-14T05:45:34.909Z,32.25
2023-05-14T05:46:34.960Z,30.30
2023-05-14T05:47:34.974Z,29.33
2023-05-14T05:48:34.887Z,29.29
2023-05-14T05:49:34.956Z,31.76
2023-05-14T05:50:34.868Z,27.96
2023-05-14T05:51:34.872Z,28.70
2023-05-14T05:52:34.854Z,30.51
2023-05-14T05:53:34.841Z,31.85
2023-05-14T05:54:34.845Z,28.00
2023-05-14T05:55:34.833Z,30.23
2023-05-14T05:56:34.827Z,30.62
2023-05-14T05:57:34.822Z,26.59
2023-05-14T05:58:34.798Z,29.65
2023-05-14T05:59:34.814Z,29.79
2023-05-14T06:00:34.792Z,31.40
2023-05-14T06:01:34.791Z,30.06
2023-05-14T06:02:34.837Z,29.21
2023-05-14T06:03:34.780Z,31.73
2023-05-14T06:04:34.779Z,30.43
2023-05-14T06:05:34.841Z,31.25
2023-05-14T06:06:34.742Z,32.02
2023-05-14T06:07:34.742Z,29.40
2023-05-14T06:08:34.718Z,31.37
2023-05-14T06:09:34.707Z,29.64
2023-05-14T06:10:34.705Z,31.98
2023-05-14T06:11:34.688Z,28.52
2023-05-14T06:12:34.693Z,31.34
2023-05-14T06:13:34.672Z,29.12
2023-05-14T06:14:34.671Z,32.83
2023-05-14T06:15:34.653Z,27.74
2023-05-14T06:16:34.648Z,29.96
2023-05-14T06:17:34.637Z,31.19
2023-05-14T06:18:34.662Z,30.27
2023-05-14T06:19:34.623Z,30.11
2023-05-14T06:20:34.628Z,29.03
2023-05-14T06:21:34.630Z,30.85
2023-05-14T06:22:34.598Z,30.08
2023-05-14T06:23:34.593Z,31.16
2023-05-14T06:24:34.577Z,29.51
2023-05-14T06:25:34.580Z,29.50
2023-05-14T06:26:34.572Z,31.81
2023-05-14T06:27:34.565Z,29.78
2023-05-14T06:28:34.565Z,30.00
2023-05-14T06:29:34.570Z,29.67
2023-05-14T06:30:34.548Z,31.05
2023-05-14T06:31:34.586Z,32.10
2023-05-14T06:32:34.571Z,31.45
2023-05-14T06:33:34.525Z,28.93
2023-05-14T06:34:34.520Z,30.21
2023-05-14T06:35:34.524Z,30.61
2023-05-14T06:36:34.515Z,31.37
2023-05-14T06:37:34.533Z,30.77
2023-05-14T06:38:34.509Z,31.17
2023-05-14T06:39:34.502Z,32.21
2023-05-14T06:40:34.495Z,31.12
2023-05-14T06:41:34.487Z,32.32
2023-05-14T06:42:34.496Z,32.03
2023-05-14T06:43:34.477Z,28.17
2023-05-14T06:44:34.475Z,33.90
2023-05-14T06:45:34.462Z,30.64
2023-05-14T06:46:34.464Z,30.84
2023-05-14T06:47:34.502Z,32.66
2023-05-14T06:48:34.464Z,31.89
2023-05-14T06:49:34.437Z,30.80
2023-05-14T06:50:34.429Z,30.53
2023-05-14T06:51:34.440Z,29.91
2023-05-14T06:52:34.436Z,32.36
2023-05-14T06:53:34.439Z,31.38
2023-05-14T06:54:34.408Z,29.23
2023-05-14T06:55:34.402Z,32.19
2023-05-14T06:56:34.393Z,30.92
2023-05-14T06:57:34.384Z,31.31
2023-05-14T06:58:34.384Z,28.70
2023-05-14T06:59:34.382Z,27.49
2023-05-14T07:00:34.361Z,29.17
2023-05-14T07:01:34.392Z,30.36
2023-05-14T07:02:34.384Z,30.81
2023-05-14T07:03:34.361Z,32.41
2023-05-14T07:04:34.397Z,31.87
2023-05-14T07:05:34.325Z,32.03
2023-05-14T07:06:34.316Z,29.14
2023-05-14T07:07:34.306Z,29.73
2023-05-14T07:08:34.290Z,30.73
2023-05-14T07:09:34.351Z,31.56
2023-05-14T07:10:34.338Z,30.21
2023-05-14T07:11:34.286Z,29.56
2023-05-14T07:12:34.287Z,30.40
2023-05-14T07:13:34.300Z,32.58
2023-05-14T07:14:34.340Z,30.66
2023-05-14T07:15:34.378Z,28.96
2023-05-14T07:16:34.528Z,31.80
2023-05-14T07:17:34.485Z,31.66
2023-05-14T07:18:34.489Z,32.41
2023-05-14T07:19:34.515Z,31.51
2023-05-14T07:20:34.535Z,29.89
2023-05-14T07:21:34.568Z,30.99
2023-05-14T07:22:34.599Z,33.91
2023-05-14T07:23:34.629Z,29.61
2023-05-14T07:24:34.671Z,32.02
2023-05-14T07:25:34.728Z,32.83
2023-05-14T07:26:34.731Z,31.01
2023-05-14T07:27:34.762Z,30.62
2023-05-14T07:28:34.793Z,30.63
2023-05-14T07:29:34.823Z,33.38
2023-05-14T07:30:34.862Z,31.99
2023-05-14T07:31:34.924Z,33.08
2023-05-14T07:32:34.986Z,34.36
2023-05-14T07:33:34.951Z,30.51
2023-05-14T07:34:34.973Z,31.48
2023-05-14T07:35:35.000Z,31.70
2023-05-14T07:36:35.021Z,30.03
2023-05-14T07:37:35.073Z,32.51
2023-05-14T07:38:35.105Z,31.17
2023-05-14T07:39:35.128Z,32.03
2023-05-14T07:40:35.157Z,29.82
2023-05-14T07:41:35.213Z,31.22
2023-05-14T07:42:37.113Z,30.88
2023-05-14T07:43:35.209Z,32.07
2023-05-14T07:44:35.233Z,31.99
2023-05-14T07:45:35.214Z,34.94
2023-05-14T07:46:35.198Z,32.48
2023-05-14T07:47:35.353Z,32.02
2023-05-14T07:48:35.275Z,31.31
2023-05-14T07:49:35.191Z,33.05
2023-05-14T07:50:35.208Z,33.41
2023-05-14T07:51:35.193Z,31.43
2023-05-14T07:52:35.202Z,31.36
2023-05-14T07:53:35.205Z,31.36
2023-05-14T07:54:35.192Z,30.06
2023-05-14T07:55:35.195Z,32.95
2023-05-14T07:56:35.195Z,30.83
2023-05-14T07:57:35.211Z,31.71
2023-05-14T07:58:36.149Z,32.84
2023-05-14T07:59:35.185Z,33.56
2023-05-14T08:00:35.181Z,30.58
2023-05-14T08:01:36.330Z,31.79
2023-05-14T08:02:35.284Z,33.55
2023-05-14T08:03:35.313Z,37.43
2023-05-14T08:04:35.247Z,34.90
2023-05-14T08:05:35.168Z,33.52
2023-05-14T08:06:35.167Z,33.67
2023-05-14T08:07:35.167Z,33.32
2023-05-14T08:08:35.153Z,31.52
2023-05-14T08:09:35.146Z,31.77
2023-05-14T08:10:35.205Z,33.54
2023-05-14T08:11:35.134Z,30.67
2023-05-14T08:12:35.131Z,31.74
2023-05-14T08:13:35.162Z,31.32
2023-05-14T08:14:35.124Z,30.73
2023-05-14T08:15:35.116Z,31.23
2023-05-14T08:16:35.213Z,34.12
2023-05-14T08:17:35.161Z,31.91
2023-05-14T08:18:35.147Z,32.07
2023-05-14T08:19:35.105Z,32.42
2023-05-14T08:20:35.098Z,31.30
2023-05-14T08:21:35.084Z,31.33
2023-05-14T08:22:35.082Z,33.91
2023-05-14T08:23:35.071Z,31.79
2023-05-14T08:24:35.112Z,32.42
2023-05-14T08:25:35.053Z,31.59
2023-05-14T08:26:35.054Z,33.53
2023-05-14T08:27:35.040Z,32.08
2023-05-14T08:28:35.024Z,29.95
2023-05-14T08:29:35.045Z,32.90
2023-05-14T08:30:35.039Z,31.72
2023-05-14T08:31:35.002Z,29.52
2023-05-14T08:32:35.010Z,33.94
2023-05-14T08:33:34.981Z,32.49
2023-05-14T08:34:34.984Z,34.71
2023-05-14T08:35:34.961Z,32.53
2023-05-14T08:36:34.955Z,30.42
2023-05-14T08:37:34.951Z,29.93
2023-05-14T08:38:34.935Z,31.75
2023-05-14T08:39:34.932Z,31.47
2023-05-14T08:40:34.919Z,32.63
2023-05-14T08:41:34.904Z,29.82
2023-05-14T08:42:34.943Z,32.37
2023-05-14T08:43:34.920Z,33.51
2023-05-14T08:44:35.040Z,31.62
2023-05-14T08:45:34.998Z,30.49
2023-05-14T08:46:35.001Z,31.25
2023-05-14T08:47:35.057Z,30.72
2023-05-14T08:48:35.140Z,30.30
2023-05-14T08:49:35.073Z,33.01
2023-05-14T08:50:35.099Z,30.63
2023-05-14T08:51:35.124Z,31.83
2023-05-14T08:52:35.145Z,32.83
2023-05-14T08:53:35.169Z,30.59
2023-05-14T08:54:35.191Z,30.47
2023-05-14T08:55:35.257Z,30.47
2023-05-14T08:56:35.234Z,30.21
2023-05-14T08:57:35.267Z,29.19
2023-05-14T08:58:35.284Z,29.95
2023-05-14T08:59:35.307Z,30.81
2023-05-14T09:00:35.316Z,30.18
2023-05-14T09:01:35.390Z,32.68
2023-05-14T09:02:35.428Z,31.67
2023-05-14T09:03:35.402Z,29.81
2023-05-14T09:04:35.474Z,32.01
2023-05-14T09:05:35.428Z,31.01
2023-05-14T09:06:35.445Z,31.22
2023-05-14T09:07:35.478Z,30.32
2023-05-14T09:08:35.495Z,32.06
2023-05-14T09:09:35.513Z,29.82
2023-05-14T09:10:35.539Z,29.85
2023-05-14T09:11:35.556Z,30.28
2023-05-14T09:12:35.576Z,30.77
2023-05-14T09:13:35.592Z,29.01
2023-05-14T09:14:35.635Z,31.23
2023-05-14T09:15:35.663Z,30.67
2023-05-14T09:16:35.728Z,32.39
2023-05-14T09:17:35.789Z,31.69
2023-05-14T09:18:35.788Z,31.14
2023-05-14T09:19:35.741Z,31.92
2023-05-14T09:20:35.756Z,32.51
2023-05-14T09:21:35.786Z,31.04
2023-05-14T09:22:35.803Z,30.44
2023-05-14T09:23:35.832Z,31.71
2023-05-14T09:24:35.835Z,31.18
2023-05-14T09:25:35.852Z,33.34
2023-05-14T09:26:35.876Z,32.81
2023-05-14T09:27:35.966Z,27.98
2023-05-14T09:28:35.909Z,32.82
2023-05-14T09:29:35.928Z,31.94
2023-05-14T09:30:35.948Z,30.37
2023-05-14T09:31:35.987Z,30.12
2023-05-14T09:32:36.043Z,32.97
2023-05-14T09:33:36.032Z,29.48
2023-05-14T09:34:36.033Z,31.22
2023-05-14T09:35:36.049Z,31.23
2023-05-14T09:36:36.068Z,29.67
2023-05-14T09:37:36.086Z,30.17
2023-05-14T09:38:36.097Z,32.41
2023-05-14T09:39:36.116Z,32.07
2023-05-14T09:40:36.127Z,33.10
2023-05-14T09:41:36.147Z,32.32
2023-05-14T09:42:36.177Z,30.28
2023-05-14T09:43:36.184Z,32.44
2023-05-14T09:44:36.220Z,30.99
2023-05-14T09:45:36.213Z,31.35
2023-05-14T09:46:36.232Z,32.22
2023-05-14T09:47:36.287Z,29.96
2023-05-14T09:48:36.334Z,30.56
2023-05-14T09:49:36.308Z,32.84
2023-05-14T09:50:36.301Z,29.49
2023-05-14T09:51:36.323Z,30.09
2023-05-14T09:52:36.394Z,31.46
2023-05-14T09:53:36.405Z,30.68
2023-05-14T09:54:36.466Z,30.55
2023-05-14T09:55:36.490Z,29.46
2023-05-14T09:56:36.516Z,30.53
2023-05-14T09:57:36.567Z,30.98
2023-05-14T09:58:36.612Z,28.80
2023-05-14T09:59:36.624Z,33.38
2023-05-14T10:00:36.696Z,30.67
2023-05-14T10:01:36.845Z,32.20
2023-05-14T10:02:36.853Z,29.88
2023-05-14T10:03:36.812Z,31.77
2023-05-14T10:04:36.873Z,31.86
2023-05-14T10:05:36.950Z,31.53
2023-05-14T10:06:36.915Z,31.33
2023-05-14T10:07:36.956Z,29.68
2023-05-14T10:08:36.968Z,30.58
2023-05-14T10:09:36.991Z,30.61
2023-05-14T10:10:37.017Z,32.04
2023-05-14T10:11:37.058Z,30.47
2023-05-14T10:12:37.106Z,31.12
2023-05-14T10:13:37.207Z,31.12
2023-05-14T10:14:37.134Z,31.07
2023-05-14T10:15:37.152Z,31.15
2023-05-14T10:16:37.230Z,31.55
2023-05-14T10:17:37.224Z,31.15
2023-05-14T10:18:37.255Z,30.70
2023-05-14T10:19:37.205Z,28.73
2023-05-14T10:20:37.233Z,28.90
2023-05-14T10:21:37.268Z,32.28
2023-05-14T10:22:37.253Z,31.77
2023-05-14T10:23:37.280Z,28.58
2023-05-14T10:24:37.278Z,29.02
2023-05-14T10:25:37.286Z,29.02
2023-05-14T10:26:37.300Z,31.52
2023-05-14T10:27:37.315Z,30.40
2023-05-14T10:28:37.329Z,31.56
2023-05-14T10:29:37.366Z,29.71
2023-05-14T10:30:37.367Z,34.77
2023-05-14T10:31:37.447Z,32.33
2023-05-14T10:32:37.423Z,29.85
2023-05-14T10:33:37.390Z,32.77
2023-05-14T10:34:37.413Z,29.72
2023-05-14T10:35:37.445Z,30.57
2023-05-14T10:36:37.432Z,31.38
2023-05-14T10:37:37.463Z,31.80
2023-05-14T10:38:37.467Z,31.82
2023-05-14T10:39:37.458Z,29.74
2023-05-14T10:40:37.470Z,31.89
2023-05-14T10:41:37.477Z,31.57
2023-05-14T10:42:37.502Z,30.55
2023-05-14T10:43:37.511Z,30.22
2023-05-14T10:44:37.509Z,30.02
2023-05-14T10:45:37.523Z,30.34
2023-05-14T10:46:37.623Z,31.30
2023-05-14T10:47:37.554Z,31.39
2023-05-14T10:48:37.557Z,30.67
2023-05-14T10:49:43.526Z,31.17
2023-05-14T10:50:37.573Z,31.42
2023-05-14T10:51:37.739Z,32.17
2023-05-14T10:52:37.532Z,33.22
2023-05-14T10:53:37.531Z,33.11
2023-05-14T10:54:37.506Z,33.18
2023-05-14T10:55:37.488Z,32.47
2023-05-14T10:56:37.482Z,34.28
2023-05-14T10:57:37.472Z,30.62
2023-05-14T10:58:37.459Z,32.31
2023-05-14T10:59:37.443Z,33.23
2023-05-14T11:00:37.423Z,32.03
2023-05-14T11:01:37.465Z,31.86
2023-05-14T11:02:37.516Z,32.52
2023-05-14T11:03:37.445Z,31.68
2023-05-14T11:04:37.393Z,31.89
2023-05-14T11:05:37.371Z,31.83
2023-05-14T11:06:37.363Z,32.83
2023-05-14T11:07:37.363Z,31.36
2023-05-14T11:08:37.340Z,32.48
2023-05-14T11:09:37.350Z,31.52
2023-05-14T11:10:37.314Z,31.75
2023-05-14T11:11:37.282Z,32.03
2023-05-14T11:12:37.294Z,32.54
2023-05-14T11:13:37.268Z,31.12
2023-05-14T11:14:37.248Z,32.12
2023-05-14T11:15:37.237Z,29.58
2023-05-14T11:16:37.221Z,31.81
2023-05-14T11:17:37.282Z,32.28
2023-05-14T11:18:37.232Z,33.17
2023-05-14T11:19:37.198Z,31.00
2023-05-14T11:20:37.185Z,31.05
2023-05-14T11:21:37.193Z,28.59
2023-05-14T11:22:37.164Z,31.86
2023-05-14T11:23:37.159Z,28.11
2023-05-14T11:24:37.136Z,31.90
2023-05-14T11:25:37.151Z,33.06
2023-05-14T11:26:37.145Z,30.42
2023-05-14T11:27:37.121Z,31.54
2023-05-14T11:28:37.129Z,31.12
2023-05-14T11:29:37.130Z,31.27
2023-05-14T11:30:37.147Z,31.84
2023-05-14T11:31:37.240Z,30.63
2023-05-14T11:32:37.283Z,32.74
2023-05-14T11:33:37.236Z,30.02
2023-05-14T11:34:37.241Z,30.19
2023-05-14T11:35:37.248Z,28.81
2023-05-14T11:36:37.260Z,30.62
2023-05-14T11:37:37.270Z,31.51
2023-05-14T11:38:37.278Z,31.99
2023-05-14T11:39:37.286Z,31.59
2023-05-14T11:40:37.297Z,31.10
2023-05-14T11:41:37.334Z,28.81
2023-05-14T11:42:37.317Z,31.17
2023-05-14T11:43:37.323Z,33.71
2023-05-14T11:44:37.321Z,29.43
2023-05-14T11:45:37.328Z,31.07
2023-05-14T11:46:37.399Z,29.66
2023-05-14T11:47:37.352Z,30.21
2023-05-14T11:48:37.342Z,30.96
2023-05-14T11:49:37.357Z,30.88
2023-05-14T11:50:37.354Z,27.78
2023-05-14T11:51:37.359Z,29.20
2023-05-14T11:52:37.364Z,30.90
2023-05-14T11:53:37.364Z,31.22
2023-05-14T11:54:37.372Z,30.99
2023-05-14T11:55:37.386Z,30.60
2023-05-14T11:56:37.400Z,29.41
2023-05-14T11:57:37.417Z,31.71
2023-05-14T11:58:37.444Z,30.17
2023-05-14T11:59:37.411Z,32.09
2023-05-14T12:00:37.433Z,31.67
2023-05-14T12:01:37.440Z,31.34
2023-05-14T12:02:37.497Z,31.95
2023-05-14T12:03:37.614Z,30.73
2023-05-14T12:04:37.522Z,31.83
2023-05-14T12:05:37.441Z,31.57
2023-05-14T12:06:37.443Z,31.45
2023-05-14T12:07:37.445Z,30.18
2023-05-14T12:08:37.447Z,28.79
2023-05-14T12:09:37.457Z,31.30
2023-05-14T12:10:37.460Z,30.59
2023-05-14T12:11:37.464Z,31.15
2023-05-14T12:12:37.538Z,30.44
2023-05-14T12:13:37.492Z,30.08
2023-05-14T12:14:37.467Z,30.54
2023-05-14T12:15:37.482Z,30.51
2023-05-14T12:16:38.507Z,31.23
2023-05-14T12:17:37.527Z,31.39
2023-05-14T12:18:37.539Z,29.55
2023-05-14T12:19:37.493Z,30.32
2023-05-14T12:20:37.502Z,30.03
2023-05-14T12:21:37.521Z,33.09
2023-05-14T12:22:37.516Z,31.40
2023-05-14T12:23:37.521Z,31.76
2023-05-14T12:24:37.538Z,30.86
2023-05-14T12:25:37.538Z,29.80
2023-05-14T12:26:37.541Z,31.92
2023-05-14T12:27:37.553Z,30.12
2023-05-14T12:28:38.670Z,32.62
2023-05-14T12:29:37.594Z,28.21
2023-05-14T12:30:37.564Z,31.62
2023-05-14T12:31:37.600Z,28.01
2023-05-14T12:32:37.613Z,30.15
2023-05-14T12:33:37.608Z,31.42
2023-05-14T12:34:37.894Z,31.34
2023-05-14T12:35:37.613Z,32.46
2023-05-14T12:36:37.605Z,30.08
2023-05-14T12:37:37.788Z,28.62
2023-05-14T12:38:37.621Z,29.69
2023-05-14T12:39:37.621Z,30.06
2023-05-14T12:40:37.621Z,30.94
2023-05-14T12:41:37.656Z,31.30
2023-05-14T12:42:37.716Z,29.45
2023-05-14T12:43:37.632Z,29.57
2023-05-14T12:44:37.633Z,28.21
2023-05-14T12:45:37.670Z,31.64
2023-05-14T12:46:37.778Z,29.46
2023-05-14T12:47:37.758Z,31.78
2023-05-14T12:48:37.666Z,31.30
2023-05-14T12:49:37.666Z,30.06
2023-05-14T12:50:37.678Z,29.38
2023-05-14T12:51:37.684Z,29.50
2023-05-14T12:52:39.641Z,32.02
2023-05-14T12:53:37.681Z,33.54